Time;durP1;ratioP1;P1;durP2;ratioP2;P2;SDS_P1;SDS_P2;PMS_P1;PMS_P2;Temp;Humidity;BMP_temperature;BMP_pressure;BME280_temperature;BME280_humidity;BME280_pressure;Samples;Min_cycle;Max_cycle;Signal;HPM_P1;HPM_P2
2023/05/04 00:00:29;;;;;;;2.97;1.48;;;;;;;;;;1020975;29;20065;-74
2023/05/04 00:01:00;;;;;;;3.63;2.08;;;;;;;;;;1020932;29;20507;-73
2023/05/04 00:01:30;;;;;;;3.08;1.77;;;;;;;;;;1021397;29;20058;-73
2023/05/04 00:02:01;;;;;;;3.17;1.73;;;;;;;;;;1021334;29;20032;-73
2023/05/04 00:02:31;;;;;;;5.47;2.35;;;;;;;;;;1021520;29;20030;-73
2023/05/04 00:03:02;;;;;;;4.25;2.15;;;;;;;;;;1021685;29;20445;-73
2023/05/04 00:03:33;;;;;;;4.07;1.77;;;;;;;;;;1021831;29;20037;-73
2023/05/04 00:04:03;;;;;;;9.13;2.30;;;;;;;;;;1021883;29;20552;-73
2023/05/04 00:04:33;;;;;;;2.17;1.60;;;;;;;;;;1021886;29;20488;-73
2023/05/04 00:05:04;;;;;;;9.48;2.55;;;;;;;;;;1021896;29;20031;-73
2023/05/04 00:05:35;;;;;;;2.05;1.55;;;;;;;;;;1021725;29;20504;-73
2023/05/04 00:06:06;;;;;;;6.15;2.90;;;;;;;;;;1021569;29;20112;-74
2023/05/04 00:06:37;;;;;;;4.68;3.42;;;;;;;;;;1021505;29;20031;-74
2023/05/04 00:07:07;;;;;;;15.85;3.42;;;;;;;;;;1021489;29;20023;-74
2023/05/04 00:07:38;;;;;;;9.88;2.65;;;;;;;;;;1021285;29;20117;-74
2023/05/04 00:08:08;;;;;;;3.80;2.35;;;;;;;;;;1021480;29;20373;-73
2023/05/04 00:08:38;;;;;;;1.95;1.83;;;;;;;;;;1021663;29;20027;-73
2023/05/04 00:09:09;;;;;;;5.95;2.70;;;;;;;;;;1021154;29;20034;-73
2023/05/04 00:09:40;;;;;;;2.85;2.17;;;;;;;;;;1021431;29;20130;-73
2023/05/04 00:10:11;;;;;;;16.85;2.42;;;;;;;;;;1022332;29;20472;-73
2023/05/04 00:10:41;;;;;;;2.75;2.17;;;;;;;;;;1021694;29;20027;-73
2023/05/04 00:11:12;;;;;;;4.93;1.85;;;;;;;;;;1021648;29;20023;-73
2023/05/04 00:11:42;;;;;;;1.08;1.05;;;;;;;;;;1021277;29;20031;-73
2023/05/04 00:12:13;;;;;;;8.65;3.42;;;;;;;;;;1021389;29;20019;-74
2023/05/04 00:12:45;;;;;;;8.00;2.30;;;;;;;;;;1021833;29;20031;-73
2023/05/04 00:13:15;;;;;;;10.00;1.40;;;;;;;;;;1021906;29;20062;-74
2023/05/04 00:13:45;;;;;;;7.90;2.28;;;;;;;;;;1021786;29;20033;-73
2023/05/04 00:14:16;;;;;;;1.50;1.40;;;;;;;;;;1021244;29;20027;-73
2023/05/04 00:14:46;;;;;;;3.30;2.13;;;;;;;;;;1020958;29;20166;-73
2023/05/04 00:15:17;;;;;;;3.78;1.85;;;;;;;;;;1021200;29;20024;-73
2023/05/04 00:15:47;;;;;;;5.15;1.73;;;;;;;;;;1020011;29;20023;-73
2023/05/04 00:16:18;;;;;;;8.43;3.65;;;;;;;;;;1021460;29;20032;-73
2023/05/04 00:16:48;;;;;;;2.05;1.70;;;;;;;;;;1021489;29;20457;-73
2023/05/04 00:17:19;;;;;;;3.92;2.80;;;;;;;;;;1021869;29;20023;-74
2023/05/04 00:17:49;;;;;;;8.40;2.65;;;;;;;;;;1021783;29;20062;-73
2023/05/04 00:18:20;;;;;;;3.13;1.75;;;;;;;;;;1021826;29;20371;-73
2023/05/04 00:18:50;;;;;;;3.85;2.58;;;;;;;;;;1021423;29;20467;-74
2023/05/04 00:19:21;;;;;;;3.90;2.65;;;;;;;;;;1021374;29;20062;-73
2023/05/04 00:19:51;;;;;;;5.35;2.67;;;;;;;;;;1021392;29;20059;-73
2023/05/04 00:20:22;;;;;;;9.57;4.03;;;;;;;;;;1021446;29;20101;-73
2023/05/04 00:20:52;;;;;;;7.63;4.22;;;;;;;;;;1021043;29;20543;-73
2023/05/04 00:21:23;;;;;;;5.15;3.55;;;;;;;;;;1021640;29;20019;-73
2023/05/04 00:21:53;;;;;;;12.07;5.15;;;;;;;;;;1021405;29;20027;-73
2023/05/04 00:22:24;;;;;;;3.55;2.05;;;;;;;;;;1021567;29;20023;-73
2023/05/04 00:22:55;;;;;;;6.18;3.47;;;;;;;;;;1021383;29;20027;-73
2023/05/04 00:23:25;;;;;;;9.38;3.78;;;;;;;;;;1021104;29;20117;-73
2023/05/04 00:23:56;;;;;;;5.78;3.25;;;;;;;;;;1017057;29;20116;-74
2023/05/04 00:24:27;;;;;;;5.88;2.80;;;;;;;;;;1017437;29;20024;-74
2023/05/04 00:24:57;;;;;;;8.07;2.53;;;;;;;;;;1017574;29;20084;-73
2023/05/04 00:25:28;;;;;;;5.47;2.13;;;;;;;;;;1017689;29;20031;-73
2023/05/04 00:25:58;;;;;;;14.52;3.53;;;;;;;;;;1020625;29;20032;-74
2023/05/04 00:26:29;;;;;;;7.22;3.53;;;;;;;;;;1021831;29;20019;-74
2023/05/04 00:26:59;;;;;;;11.70;3.42;;;;;;;;;;1021588;29;20062;-73
2023/05/04 00:27:30;;;;;;;5.25;3.75;;;;;;;;;;1021884;29;20579;-74
2023/05/04 00:28:00;;;;;;;8.10;3.42;;;;;;;;;;1021782;29;20023;-73
2023/05/04 00:28:31;;;;;;;3.85;2.25;;;;;;;;;;1021313;29;20027;-73
2023/05/04 00:29:01;;;;;;;20.48;2.30;;;;;;;;;;1021072;29;20031;-74
2023/05/04 00:29:32;;;;;;;25.08;4.65;;;;;;;;;;1021063;29;20027;-73
2023/05/04 00:30:02;;;;;;;6.07;3.38;;;;;;;;;;1021327;29;20034;-73
2023/05/04 00:30:33;;;;;;;48.05;6.38;;;;;;;;;;1021821;29;20043;-73
2023/05/04 00:31:03;;;;;;;6.60;3.33;;;;;;;;;;1021829;29;20031;-73
2023/05/04 00:31:34;;;;;;;5.85;3.55;;;;;;;;;;1021506;29;20030;-73
2023/05/04 00:32:05;;;;;;;4.70;2.38;;;;;;;;;;1021303;29;20118;-73
2023/05/04 00:32:35;;;;;;;3.33;2.55;;;;;;;;;;1017097;29;20526;-73
2023/05/04 00:33:06;;;;;;;3.95;3.03;;;;;;;;;;1017350;29;20035;-73
2023/05/04 00:33:36;;;;;;;5.40;3.10;;;;;;;;;;1016790;29;20028;-74
2023/05/04 00:34:07;;;;;;;9.27;2.70;;;;;;;;;;1017243;29;20495;-73
2023/05/04 00:34:38;;;;;;;6.75;2.72;;;;;;;;;;1021617;29;20049;-73
2023/05/04 00:35:08;;;;;;;17.42;3.47;;;;;;;;;;1021237;29;20511;-73
2023/05/04 00:35:39;;;;;;;4.88;2.13;;;;;;;;;;1021287;29;20027;-74
2023/05/04 00:36:10;;;;;;;2.92;2.28;;;;;;;;;;1021738;29;20483;-73
2023/05/04 00:36:41;;;;;;;1.65;1.55;;;;;;;;;;1021837;29;20253;-74
2023/05/04 00:37:11;;;;;;;2.72;1.52;;;;;;;;;;1021771;29;20019;-73
2023/05/04 00:37:42;;;;;;;6.97;2.47;;;;;;;;;;1021296;29;20395;-74
2023/05/04 00:38:15;;;;;;;11.48;3.08;;;;;;;;;;1020894;29;20029;-74
2023/05/04 00:38:52;;;;;;;1.55;1.17;;;;;;;;;;1020845;29;20050;-73
2023/05/04 00:39:23;;;;;;;12.07;2.00;;;;;;;;;;1019333;29;20086;-73
2023/05/04 00:39:53;;;;;;;5.15;1.83;;;;;;;;;;1017382;29;20070;-73
2023/05/04 00:40:24;;;;;;;7.30;2.83;;;;;;;;;;1020770;29;20118;-74
2023/05/04 00:40:54;;;;;;;6.60;3.65;;;;;;;;;;1021533;29;20049;-74
2023/05/04 00:41:25;;;;;;;3.35;2.90;;;;;;;;;;1021844;29;20023;-74
2023/05/04 00:41:55;;;;;;;5.50;3.20;;;;;;;;;;1020999;29;20035;-73
2023/05/04 00:42:26;;;;;;;13.63;3.25;;;;;;;;;;1021199;29;20015;-73
2023/05/04 00:42:56;;;;;;;5.18;4.25;;;;;;;;;;1021767;29;20051;-73
2023/05/04 00:43:27;;;;;;;2.85;2.15;;;;;;;;;;1020489;29;20023;-73
2023/05/04 00:43:58;;;;;;;6.80;3.88;;;;;;;;;;1020776;29;20051;-73
2023/05/04 00:44:29;;;;;;;7.40;4.53;;;;;;;;;;1021436;29;20023;-73
2023/05/04 00:44:59;;;;;;;6.10;2.35;;;;;;;;;;1021704;29;20024;-73
2023/05/04 00:45:30;;;;;;;7.38;2.15;;;;;;;;;;1016311;29;20119;-74
2023/05/04 00:46:01;;;;;;;4.45;3.10;;;;;;;;;;1016632;29;20028;-73
2023/05/04 00:46:32;;;;;;;10.95;5.68;;;;;;;;;;1017280;29;20024;-73
2023/05/04 00:47:03;;;;;;;5.93;3.10;;;;;;;;;;1016517;29;20028;-73
2023/05/04 00:47:33;;;;;;;10.82;3.72;;;;;;;;;;1020903;29;20027;-73
2023/05/04 00:48:05;;;;;;;4.13;1.95;;;;;;;;;;1021400;29;20558;-73
2023/05/04 00:48:36;;;;;;;15.93;4.05;;;;;;;;;;1021371;29;20498;-73
2023/05/04 00:49:06;;;;;;;5.85;4.05;;;;;;;;;;1020990;29;20035;-73
2023/05/04 00:49:37;;;;;;;10.20;5.68;;;;;;;;;;1021110;29;20051;-73
2023/05/04 00:50:08;;;;;;;7.85;2.05;;;;;;;;;;1021498;29;20027;-73
2023/05/04 00:50:38;;;;;;;2.22;2.03;;;;;;;;;;1020188;29;20506;-73
2023/05/04 00:51:10;;;;;;;2.95;2.42;;;;;;;;;;1021554;29;20038;-73
2023/05/04 00:51:41;;;;;;;2.65;1.83;;;;;;;;;;1021366;29;20035;-73
2023/05/04 00:52:13;;;;;;;3.47;2.72;;;;;;;;;;1020983;29;20066;-73
2023/05/04 00:52:45;;;;;;;2.67;2.47;;;;;;;;;;1021016;29;20051;-73
2023/05/04 00:53:15;;;;;;;4.88;2.90;;;;;;;;;;1020911;29;20547;-74
2023/05/04 00:53:47;;;;;;;3.40;3.08;;;;;;;;;;1021037;29;20031;-74
2023/05/04 00:54:18;;;;;;;3.15;2.33;;;;;;;;;;1021488;29;20035;-73
2023/05/04 00:54:49;;;;;;;10.75;2.50;;;;;;;;;;1020875;29;20031;-73
2023/05/04 00:55:19;;;;;;;5.03;3.33;;;;;;;;;;1020853;29;20023;-74
2023/05/04 00:55:50;;;;;;;7.13;2.42;;;;;;;;;;1021028;29;20038;-74
2023/05/04 00:56:23;;;;;;;3.75;3.25;;;;;;;;;;1021700;29;20074;-74
2023/05/04 00:56:55;;;;;;;2.40;1.70;;;;;;;;;;1016920;29;20120;-74
2023/05/04 00:57:26;;;;;;;3.67;1.98;;;;;;;;;;1019273;29;20064;-73
2023/05/04 00:57:57;;;;;;;4.32;3.83;;;;;;;;;;1019165;29;20110;-74
2023/05/04 00:58:28;;;;;;;4.25;1.83;;;;;;;;;;1018389;29;20074;-73
2023/05/04 00:58:58;;;;;;;8.82;2.92;;;;;;;;;;1021644;29;20071;-73
2023/05/04 00:59:29;;;;;;;3.92;2.50;;;;;;;;;;1021739;29;20027;-73
2023/05/04 00:59:59;;;;;;;5.03;2.88;;;;;;;;;;1021626;29;20035;-73
2023/05/04 01:00:30;;;;;;;3.45;2.00;;;;;;;;;;1021071;29;20030;-74
2023/05/04 01:01:02;;;;;;;2.97;2.00;;;;;;;;;;1020990;29;20023;-73
2023/05/04 01:01:32;;;;;;;6.93;2.72;;;;;;;;;;1021427;28;20424;-74
2023/05/04 01:02:03;;;;;;;2.97;2.42;;;;;;;;;;1020213;29;20031;-74
2023/05/04 01:02:33;;;;;;;14.80;1.98;;;;;;;;;;1022090;29;20019;-74
2023/05/04 01:03:04;;;;;;;2.67;1.65;;;;;;;;;;1018529;29;20039;-74
2023/05/04 01:03:34;;;;;;;6.13;2.97;;;;;;;;;;1017956;29;20020;-74
2023/05/04 01:04:05;;;;;;;3.15;1.80;;;;;;;;;;1017600;29;20170;-73
2023/05/04 01:04:36;;;;;;;2.42;1.95;;;;;;;;;;1018542;29;20024;-74
2023/05/04 01:05:07;;;;;;;4.75;1.67;;;;;;;;;;1021559;29;20373;-74
2023/05/04 01:05:42;;;;;;;16.20;3.60;;;;;;;;;;1021647;29;20070;-74
2023/05/04 01:06:27;;;;;;;4.25;3.15;;;;;;;;;;1021333;29;20094;-74
2023/05/04 01:07:06;;;;;;;3.13;2.35;;;;;;;;;;1022281;29;20109;-73
2023/05/04 01:07:55;;;;;;;4.47;1.17;;;;;;;;;;1021252;29;20031;-73
2023/05/04 01:08:30;;;;;;;1.73;1.27;;;;;;;;;;1021999;29;20199;-74
2023/05/04 01:09:19;;;;;;;4.88;3.75;;;;;;;;;;1020549;29;20027;-74
2023/05/04 01:09:52;;;;;;;7.03;2.08;;;;;;;;;;1021992;29;20472;-73
2023/05/04 01:10:30;;;;;;;6.57;3.35;;;;;;;;;;1022412;29;20472;-73
2023/05/04 01:11:05;;;;;;;7.10;2.80;;;;;;;;;;1021598;29;20123;-74
2023/05/04 01:11:39;;;;;;;3.05;2.45;;;;;;;;;;1022552;29;20030;-73
2023/05/04 01:12:14;;;;;;;4.90;1.77;;;;;;;;;;1021468;29;20023;-74
2023/05/04 01:12:50;;;;;;;2.78;1.73;;;;;;;;;;1020827;29;20029;-73
2023/05/04 01:13:21;;;;;;;5.53;2.67;;;;;;;;;;1021501;29;20023;-74
2023/05/04 01:13:52;;;;;;;3.08;2.05;;;;;;;;;;1020850;29;20122;-74
2023/05/04 01:14:23;;;;;;;3.83;1.63;;;;;;;;;;1020277;29;20032;-74
2023/05/04 01:14:55;;;;;;;2.10;1.65;;;;;;;;;;1021983;29;20023;-74
2023/05/04 01:15:26;;;;;;;2.72;0.65;;;;;;;;;;1022526;29;20480;-74
2023/05/04 01:15:56;;;;;;;4.65;1.98;;;;;;;;;;1017974;29;20039;-74
2023/05/04 01:16:27;;;;;;;5.28;4.20;;;;;;;;;;1017260;29;20027;-74
2023/05/04 01:16:58;;;;;;;1.27;1.17;;;;;;;;;;1017588;29;20600;-74
2023/05/04 01:17:28;;;;;;;3.35;2.50;;;;;;;;;;1017230;29;20024;-74
2023/05/04 01:17:59;;;;;;;2.85;1.80;;;;;;;;;;1021100;29;20055;-74
2023/05/04 01:18:29;;;;;;;3.25;2.28;;;;;;;;;;1022639;29;20039;-74
2023/05/04 01:19:02;;;;;;;3.17;1.90;;;;;;;;;;1021358;29;20456;-74
2023/05/04 01:19:33;;;;;;;5.80;3.42;;;;;;;;;;1021115;29;20455;-74
2023/05/04 01:20:03;;;;;;;3.67;3.03;;;;;;;;;;1022173;29;20035;-74
2023/05/04 01:20:34;;;;;;;3.60;2.03;;;;;;;;;;1020205;29;20440;-74
2023/05/04 01:21:05;;;;;;;11.13;3.15;;;;;;;;;;1020778;29;20492;-74
2023/05/04 01:21:37;;;;;;;3.45;1.80;;;;;;;;;;1018890;29;20456;-72
2023/05/04 01:22:08;;;;;;;3.47;1.42;;;;;;;;;;1020124;29;20027;-73
2023/05/04 01:22:38;;;;;;;3.88;2.72;;;;;;;;;;1018546;29;20054;-74
2023/05/04 01:23:09;;;;;;;4.63;2.70;;;;;;;;;;1015411;29;20059;-74
2023/05/04 01:23:40;;;;;;;2.10;1.52;;;;;;;;;;1016744;29;20595;-74
2023/05/04 01:24:10;;;;;;;9.65;1.85;;;;;;;;;;1016444;29;20095;-74
2023/05/04 01:24:41;;;;;;;4.22;1.42;;;;;;;;;;1014482;29;20031;-74
2023/05/04 01:25:11;;;;;;;4.38;2.45;;;;;;;;;;1016169;29;20032;-75
2023/05/04 01:25:56;;;;;;;5.70;2.45;;;;;;;;;;1017253;29;20071;-75
2023/05/04 01:26:28;;;;;;;6.25;3.20;;;;;;;;;;1017122;29;20055;-74
2023/05/04 01:27:03;;;;;;;2.85;1.80;;;;;;;;;;1019852;29;20027;-72
2023/05/04 01:27:36;;;;;;;4.82;2.85;;;;;;;;;;1015979;29;20028;-72
2023/05/04 01:28:09;;;;;;;5.00;2.03;;;;;;;;;;1015098;29;20032;-72
2023/05/04 01:28:51;;;;;;;4.05;2.17;;;;;;;;;;1014121;29;20032;-74
2023/05/04 01:29:45;;;;;;;4.20;2.08;;;;;;;;;;1020312;29;20119;-74
2023/05/04 01:30:18;;;;;;;4.32;2.83;;;;;;;;;;1010807;29;20033;-74
2023/05/04 01:30:52;;;;;;;13.52;3.83;;;;;;;;;;1014493;29;20036;-74
2023/05/04 01:31:26;;;;;;;5.72;1.83;;;;;;;;;;1014303;29;20039;-74
2023/05/04 01:31:57;;;;;;;3.17;2.13;;;;;;;;;;1018849;29;20118;-71
2023/05/04 01:32:29;;;;;;;7.95;3.22;;;;;;;;;;1020136;29;20602;-74
2023/05/04 01:33:00;;;;;;;5.68;2.50;;;;;;;;;;1019395;29;20027;-75
2023/05/04 01:33:31;;;;;;;2.72;2.17;;;;;;;;;;1019922;29;20027;-74
2023/05/04 01:34:01;;;;;;;5.05;2.45;;;;;;;;;;1018560;29;20063;-73
2023/05/04 01:34:33;;;;;;;8.65;3.47;;;;;;;;;;1019561;29;20027;-74
2023/05/04 01:35:03;;;;;;;4.40;1.08;;;;;;;;;;1020932;29;20114;-74
2023/05/04 01:35:34;;;;;;;2.97;1.77;;;;;;;;;;1019699;29;20028;-74
2023/05/04 01:36:06;;;;;;;8.70;2.28;;;;;;;;;;1018828;29;20396;-73
2023/05/04 01:36:37;;;;;;;8.23;3.90;;;;;;;;;;1017999;29;20476;-73
2023/05/04 01:37:08;;;;;;;5.03;2.90;;;;;;;;;;1015180;29;20068;-74
2023/05/04 01:37:38;;;;;;;4.18;2.00;;;;;;;;;;1012884;29;20024;-72
2023/05/04 01:38:09;;;;;;;6.93;2.33;;;;;;;;;;1011654;29;20060;-74
2023/05/04 01:38:41;;;;;;;5.47;2.72;;;;;;;;;;1009747;29;20618;-74
2023/05/04 01:39:11;;;;;;;5.93;2.10;;;;;;;;;;1015582;29;20050;-74
2023/05/04 01:39:41;;;;;;;7.95;2.75;;;;;;;;;;1014903;29;20035;-73
2023/05/04 01:40:12;;;;;;;0.98;0.95;;;;;;;;;;1014511;29;20522;-74
2023/05/04 01:40:42;;;;;;;3.10;2.30;;;;;;;;;;1014010;29;21281;-74
2023/05/04 01:41:13;;;;;;;2.95;1.63;;;;;;;;;;1019860;29;20027;-75
2023/05/04 01:41:44;;;;;;;15.55;2.55;;;;;;;;;;1015631;29;20724;-74
2023/05/04 01:42:14;;;;;;;3.13;2.60;;;;;;;;;;1015674;29;20546;-73
2023/05/04 01:42:45;;;;;;;4.25;2.55;;;;;;;;;;1010441;29;20467;-74
2023/05/04 01:43:15;;;;;;;6.35;2.20;;;;;;;;;;1012057;29;20036;-73
2023/05/04 01:43:46;;;;;;;8.82;2.72;;;;;;;;;;1010564;29;20473;-74
2023/05/04 01:44:16;;;;;;;4.40;2.00;;;;;;;;;;1015351;29;20563;-74
2023/05/04 01:44:47;;;;;;;2.22;1.38;;;;;;;;;;1016246;29;20483;-74
2023/05/04 01:45:17;;;;;;;17.63;4.15;;;;;;;;;;1014700;29;20035;-74
2023/05/04 01:45:48;;;;;;;4.07;2.58;;;;;;;;;;1015256;29;20042;-74
2023/05/04 01:46:19;;;;;;;3.03;2.22;;;;;;;;;;1020035;29;20027;-74
2023/05/04 01:46:49;;;;;;;11.38;1.90;;;;;;;;;;1019739;29;20024;-74
2023/05/04 01:47:20;;;;;;;17.67;4.10;;;;;;;;;;1020361;29;20023;-74
2023/05/04 01:47:50;;;;;;;20.40;4.10;;;;;;;;;;1020272;29;20381;-74
2023/05/04 01:48:21;;;;;;;5.85;1.90;;;;;;;;;;1018738;29;20435;-74
2023/05/04 01:48:51;;;;;;;2.53;2.22;;;;;;;;;;1017075;29;20417;-74
2023/05/04 01:49:22;;;;;;;2.58;1.67;;;;;;;;;;1020968;29;20492;-74
2023/05/04 01:49:52;;;;;;;3.33;2.60;;;;;;;;;;1021037;29;20016;-74
2023/05/04 01:50:23;;;;;;;3.28;1.92;;;;;;;;;;1020032;29;20031;-74
2023/05/04 01:50:54;;;;;;;3.92;2.60;;;;;;;;;;1020587;29;20031;-73
2023/05/04 01:51:25;;;;;;;2.63;1.60;;;;;;;;;;1019407;29;20191;-73
2023/05/04 01:51:55;;;;;;;2.05;0.73;;;;;;;;;;1020434;29;20487;-73
2023/05/04 01:52:26;;;;;;;5.03;1.77;;;;;;;;;;1019377;29;20031;-74
2023/05/04 01:52:56;;;;;;;7.00;3.42;;;;;;;;;;1019153;29;20058;-73
2023/05/04 01:53:29;;;;;;;4.57;2.28;;;;;;;;;;1018381;29;20039;-74
2023/05/04 01:54:02;;;;;;;4.95;2.03;;;;;;;;;;1017203;29;20063;-73
2023/05/04 01:54:32;;;;;;;3.80;2.20;;;;;;;;;;1015671;29;20032;-74
2023/05/04 01:55:03;;;;;;;2.60;2.28;;;;;;;;;;1014527;29;20432;-74
2023/05/04 01:55:33;;;;;;;2.70;1.33;;;;;;;;;;1015267;29;20524;-74
2023/05/04 01:56:05;;;;;;;8.07;1.40;;;;;;;;;;1010307;29;20040;-75
2023/05/04 01:56:36;;;;;;;14.88;2.88;;;;;;;;;;1014618;29;20036;-75
2023/05/04 01:57:06;;;;;;;6.85;1.77;;;;;;;;;;1015601;29;20028;-74
2023/05/04 01:57:37;;;;;;;2.85;2.00;;;;;;;;;;1014582;29;20020;-73
2023/05/04 01:58:07;;;;;;;6.80;2.45;;;;;;;;;;1018732;29;20031;-74
2023/05/04 01:58:38;;;;;;;5.50;1.85;;;;;;;;;;1016395;29;20028;-73
2023/05/04 01:59:08;;;;;;;9.02;3.03;;;;;;;;;;1020555;29;20424;-73
2023/05/04 01:59:39;;;;;;;4.43;3.28;;;;;;;;;;1019788;29;20337;-74
2023/05/04 02:00:10;;;;;;;4.78;2.08;;;;;;;;;;1019056;29;20086;-74
2023/05/04 02:00:41;;;;;;;4.47;3.03;;;;;;;;;;1020862;29;20023;-74
2023/05/04 02:01:12;;;;;;;6.00;2.22;;;;;;;;;;1020746;29;20110;-73
2023/05/04 02:01:42;;;;;;;1.77;1.35;;;;;;;;;;1020086;29;20038;-73
2023/05/04 02:02:13;;;;;;;3.95;2.10;;;;;;;;;;1021959;29;20150;-74
2023/05/04 02:02:43;;;;;;;2.92;1.95;;;;;;;;;;1020037;29;20022;-74
2023/05/04 02:03:14;;;;;;;7.05;3.17;;;;;;;;;;1021652;29;20467;-73
2023/05/04 02:03:44;;;;;;;1.83;1.48;;;;;;;;;;1014258;29;20059;-73
2023/05/04 02:04:15;;;;;;;3.42;1.88;;;;;;;;;;1015205;29;20044;-74
2023/05/04 02:04:45;;;;;;;11.80;2.15;;;;;;;;;;1013610;29;20178;-74
2023/05/04 02:05:16;;;;;;;14.18;2.33;;;;;;;;;;1014434;29;20032;-73
2023/05/04 02:05:47;;;;;;;2.25;1.35;;;;;;;;;;1018891;29;20023;-74
2023/05/04 02:06:17;;;;;;;1.90;1.30;;;;;;;;;;1013826;29;20028;-74
2023/05/04 02:06:48;;;;;;;5.25;3.20;;;;;;;;;;1016419;29;20191;-73
2023/05/04 02:07:18;;;;;;;3.85;1.88;;;;;;;;;;1014787;29;20099;-74
2023/05/04 02:07:49;;;;;;;5.20;3.13;;;;;;;;;;1016080;29;20063;-74
2023/05/04 02:08:20;;;;;;;3.22;1.45;;;;;;;;;;1018751;29;20504;-74
2023/05/04 02:08:50;;;;;;;8.02;2.67;;;;;;;;;;1020033;29;20045;-74
2023/05/04 02:09:22;;;;;;;3.75;2.42;;;;;;;;;;1020959;29;20059;-73
2023/05/04 02:09:52;;;;;;;18.83;3.95;;;;;;;;;;1019385;29;20032;-74
2023/05/04 02:10:23;;;;;;;2.10;1.50;;;;;;;;;;1019038;29;20547;-74
2023/05/04 02:10:53;;;;;;;2.20;1.75;;;;;;;;;;1020076;29;20034;-74
2023/05/04 02:11:24;;;;;;;5.00;1.63;;;;;;;;;;1019702;29;20035;-74
2023/05/04 02:11:54;;;;;;;8.95;2.22;;;;;;;;;;1019956;29;20907;-74
2023/05/04 02:12:24;;;;;;;3.80;1.90;;;;;;;;;;1020350;29;20027;-74
2023/05/04 02:12:55;;;;;;;2.83;1.55;;;;;;;;;;1019790;29;20030;-74
2023/05/04 02:13:25;;;;;;;3.20;1.60;;;;;;;;;;1017652;29;20126;-75
2023/05/04 02:13:56;;;;;;;7.50;2.00;;;;;;;;;;1016567;29;20078;-75
2023/05/04 02:14:27;;;;;;;4.57;1.92;;;;;;;;;;1013652;29;20099;-75
2023/05/04 02:14:57;;;;;;;1.67;1.50;;;;;;;;;;1009975;29;20381;-74
2023/05/04 02:15:28;;;;;;;8.15;2.22;;;;;;;;;;1009431;29;20401;-74
2023/05/04 02:15:58;;;;;;;3.35;1.58;;;;;;;;;;1011270;29;20482;-75
2023/05/04 02:16:29;;;;;;;7.13;3.25;;;;;;;;;;1014954;29;20668;-76
2023/05/04 02:16:59;;;;;;;3.03;0.98;;;;;;;;;;1015173;29;20067;-74
2023/05/04 02:17:30;;;;;;;3.47;2.33;;;;;;;;;;1014619;29;20079;-74
2023/05/04 02:18:00;;;;;;;9.05;2.53;;;;;;;;;;1018807;29;20415;-74
2023/05/04 02:18:31;;;;;;;3.88;1.55;;;;;;;;;;1016987;29;20019;-73
2023/05/04 02:19:01;;;;;;;4.10;2.55;;;;;;;;;;1015557;29;20030;-73
2023/05/04 02:19:32;;;;;;;1.48;0.85;;;;;;;;;;1017821;29;20224;-73
2023/05/04 02:20:03;;;;;;;3.22;1.25;;;;;;;;;;1019841;29;20431;-73
2023/05/04 02:20:34;;;;;;;1.13;0.90;;;;;;;;;;1018550;29;20031;-73
2023/05/04 02:21:04;;;;;;;2.28;1.42;;;;;;;;;;1019137;29;20118;-73
2023/05/04 02:21:35;;;;;;;4.93;1.17;;;;;;;;;;1019586;29;20452;-75
2023/05/04 02:22:05;;;;;;;2.08;1.40;;;;;;;;;;1018352;29;20036;-74
2023/05/04 02:22:36;;;;;;;7.05;3.05;;;;;;;;;;1020826;29;20023;-75
2023/05/04 02:23:06;;;;;;;2.72;2.00;;;;;;;;;;1018404;29;20028;-73
2023/05/04 02:23:37;;;;;;;10.40;2.35;;;;;;;;;;1018302;29;20083;-74
2023/05/04 02:24:07;;;;;;;22.58;2.10;;;;;;;;;;1018514;29;20055;-74
2023/05/04 02:24:39;;;;;;;2.17;1.98;;;;;;;;;;1018310;29;20484;-74
2023/05/04 02:25:10;;;;;;;6.28;2.30;;;;;;;;;;1013665;29;20032;-73
2023/05/04 02:25:40;;;;;;;0.85;0.68;;;;;;;;;;1014605;29;20455;-76
2023/05/04 02:26:11;;;;;;;1.08;1.00;;;;;;;;;;1015241;29;20076;-75
2023/05/04 02:26:42;;;;;;;5.95;2.17;;;;;;;;;;1012962;29;20448;-74
2023/05/04 02:27:12;;;;;;;2.15;1.80;;;;;;;;;;1012284;29;20531;-76
2023/05/04 02:27:43;;;;;;;9.48;2.38;;;;;;;;;;1012678;29;20024;-75
2023/05/04 02:28:13;;;;;;;2.10;1.73;;;;;;;;;;1014975;29;20036;-74
2023/05/04 02:28:44;;;;;;;2.65;1.85;;;;;;;;;;1016615;29;20789;-75
2023/05/04 02:29:14;;;;;;;8.18;2.50;;;;;;;;;;1018259;29;20042;-75
2023/05/04 02:29:45;;;;;;;2.42;2.15;;;;;;;;;;1017019;29;20028;-75
2023/05/04 02:30:15;;;;;;;3.40;2.17;;;;;;;;;;1017618;29;20031;-74
2023/05/04 02:30:46;;;;;;;5.05;2.15;;;;;;;;;;1018051;29;20023;-75
2023/05/04 02:31:16;;;;;;;1.95;1.70;;;;;;;;;;1017748;29;20332;-75
2023/05/04 02:31:47;;;;;;;6.13;1.88;;;;;;;;;;1018776;29;20383;-75
2023/05/04 02:32:17;;;;;;;5.57;2.17;;;;;;;;;;1018613;29;20031;-75
2023/05/04 02:32:48;;;;;;;3.47;1.25;;;;;;;;;;1018589;29;20071;-75
2023/05/04 02:33:19;;;;;;;1.35;1.08;;;;;;;;;;1018970;29;20035;-74
2023/05/04 02:33:52;;;;;;;0.70;0.68;;;;;;;;;;1017700;29;20058;-75
2023/05/04 02:34:23;;;;;;;1.50;1.40;;;;;;;;;;1014117;29;20487;-75
2023/05/04 02:34:53;;;;;;;17.08;1.42;;;;;;;;;;1014054;29;20036;-75
2023/05/04 02:35:24;;;;;;;3.72;1.42;;;;;;;;;;1014636;29;20024;-74
2023/05/04 02:35:54;;;;;;;1.30;1.20;;;;;;;;;;1014317;29;20377;-76
2023/05/04 02:36:25;;;;;;;1.67;1.15;;;;;;;;;;1012836;29;20772;-77
2023/05/04 02:36:55;;;;;;;3.50;1.85;;;;;;;;;;1018013;29;20023;-74
2023/05/04 02:37:26;;;;;;;1.90;1.40;;;;;;;;;;1019116;29;20036;-77
2023/05/04 02:37:56;;;;;;;2.35;0.88;;;;;;;;;;1019861;29;20419;-72
2023/05/04 02:38:27;;;;;;;2.35;1.85;;;;;;;;;;1021323;29;20499;-72
2023/05/04 02:38:59;;;;;;;1.75;0.52;;;;;;;;;;1020245;29;20559;-71
2023/05/04 02:39:29;;;;;;;1.27;0.63;;;;;;;;;;1017895;29;20397;-72
2023/05/04 02:40:00;;;;;;;0.80;0.65;;;;;;;;;;1018857;29;20036;-73
2023/05/04 02:40:31;;;;;;;1.75;1.40;;;;;;;;;;1016352;29;20051;-73
2023/05/04 02:41:02;;;;;;;2.50;1.27;;;;;;;;;;1015247;29;20047;-75
2023/05/04 02:41:35;;;;;;;4.82;1.17;;;;;;;;;;1014175;29;20030;-74
2023/05/04 02:42:06;;;;;;;1.70;1.40;;;;;;;;;;1015191;29;20028;-75
2023/05/04 02:42:36;;;;;;;1.85;1.23;;;;;;;;;;1014102;29;20451;-74
2023/05/04 02:43:07;;;;;;;1.60;1.50;;;;;;;;;;1019211;29;20039;-74
2023/05/04 02:43:37;;;;;;;3.42;2.17;;;;;;;;;;1020132;29;20602;-75
2023/05/04 02:44:08;;;;;;;3.85;1.85;;;;;;;;;;1013100;29;20047;-75
2023/05/04 02:44:38;;;;;;;3.92;1.98;;;;;;;;;;1013054;29;20058;-74
2023/05/04 02:45:09;;;;;;;1.33;0.55;;;;;;;;;;1013613;29;20079;-76
2023/05/04 02:45:40;;;;;;;3.92;1.83;;;;;;;;;;1015591;29;20038;-75
2023/05/04 02:46:10;;;;;;;1.60;1.17;;;;;;;;;;1019190;29;20028;-73
2023/05/04 02:46:41;;;;;;;1.50;1.05;;;;;;;;;;1019612;29;20079;-73
2023/05/04 02:47:11;;;;;;;1.45;0.68;;;;;;;;;;1020407;29;20024;-74
2023/05/04 02:47:42;;;;;;;1.48;0.88;;;;;;;;;;1015323;29;20087;-74
2023/05/04 02:48:17;;;;;;;1.23;0.80;;;;;;;;;;1017977;29;20032;-75
2023/05/04 02:48:47;;;;;;;0.57;0.45;;;;;;;;;;1016556;29;20020;-75
2023/05/04 02:49:18;;;;;;;0.13;0.13;;;;;;;;;;1015547;29;20032;-75
2023/05/04 02:49:51;;;;;;;5.05;2.05;;;;;;;;;;1018786;29;20070;-75
2023/05/04 02:50:21;;;;;;;3.80;2.05;;;;;;;;;;1016991;29;20027;-75
2023/05/04 02:50:52;;;;;;;1.80;0.80;;;;;;;;;;1012127;29;20617;-75
2023/05/04 02:51:22;;;;;;;2.55;1.17;;;;;;;;;;1010829;29;20096;-76
2023/05/04 02:51:53;;;;;;;1.23;0.98;;;;;;;;;;1015103;29;20036;-74
2023/05/04 02:52:23;;;;;;;2.53;1.45;;;;;;;;;;1010574;29;20033;-74
2023/05/04 02:52:53;;;;;;;1.63;0.95;;;;;;;;;;1018635;29;20032;-74
2023/05/04 02:53:24;;;;;;;0.88;0.88;;;;;;;;;;1018015;29;20034;-74
2023/05/04 02:54:01;;;;;;;2.92;1.38;;;;;;;;;;1009716;29;20161;-75
2023/05/04 02:54:34;;;;;;;1.45;1.10;;;;;;;;;;1008876;29;20098;-76
2023/05/04 02:55:05;;;;;;;1.05;0.75;;;;;;;;;;1011747;29;20074;-75
2023/05/04 02:55:36;;;;;;;8.13;1.75;;;;;;;;;;1012178;29;20021;-75
2023/05/04 02:56:06;;;;;;;3.03;1.92;;;;;;;;;;1012293;29;20044;-77
2023/05/04 02:56:37;;;;;;;0.77;0.63;;;;;;;;;;1013415;29;20766;-77
2023/05/04 02:57:07;;;;;;;0.40;0.40;;;;;;;;;;1014819;29;20056;-75
2023/05/04 02:57:38;;;;;;;1.27;0.65;;;;;;;;;;1018310;29;20027;-73
2023/05/04 02:58:08;;;;;;;1.45;0.90;;;;;;;;;;1017375;29;20019;-74
2023/05/04 02:58:39;;;;;;;0.43;0.43;;;;;;;;;;1014540;29;20520;-73
2023/05/04 02:59:09;;;;;;;1.35;0.85;;;;;;;;;;1014973;29;20040;-74
2023/05/04 02:59:40;;;;;;;5.38;1.55;;;;;;;;;;1016113;29;20032;-74
2023/05/04 03:00:10;;;;;;;1.98;1.27;;;;;;;;;;1016146;29;20034;-74
2023/05/04 03:00:41;;;;;;;2.05;0.77;;;;;;;;;;1019369;29;20476;-73
2023/05/04 03:01:12;;;;;;;2.78;0.60;;;;;;;;;;1019658;29;20484;-74
2023/05/04 03:01:42;;;;;;;1.00;0.60;;;;;;;;;;1018374;29;20038;-73
2023/05/04 03:02:13;;;;;;;0.77;0.45;;;;;;;;;;1018740;29;20030;-74
2023/05/04 03:02:43;;;;;;;0.93;0.63;;;;;;;;;;1019406;29;20031;-74
2023/05/04 03:03:14;;;;;;;0.90;0.68;;;;;;;;;;1020461;29;20408;-75
2023/05/04 03:03:44;;;;;;;2.08;0.90;;;;;;;;;;1018855;29;20032;-74
2023/05/04 03:04:15;;;;;;;1.00;0.65;;;;;;;;;;1019469;29;20132;-74
2023/05/04 03:04:45;;;;;;;6.38;0.70;;;;;;;;;;1018874;29;20034;-74
2023/05/04 03:05:17;;;;;;;1.38;0.95;;;;;;;;;;1021661;29;20043;-74
2023/05/04 03:05:47;;;;;;;0.50;0.50;;;;;;;;;;1018877;29;20122;-76
2023/05/04 03:06:26;;;;;;;0.55;0.52;;;;;;;;;;1018794;29;20020;-77
2023/05/04 03:06:57;;;;;;;2.72;1.38;;;;;;;;;;1019556;29;20131;-77